ADDS METAR Data INFO
IDs: Format: Raw Decoded Include TAF

Data at: 1211 UTC 18 Nov 2017

METAR for:KGEZ (Shelbyville Muni, IN, US)
Text:KGEZ 181153Z AUTO 19013KT 10SM OVC026 14/09 A2952 RMK AO2 LTG DSNT N AND NE SLP994 60000 70006 T01440089 10144 20100 56022
Temperature: 14.4°C ( 58°F)
Dewpoint: 8.9°C ( 48°F) [RH = 70%]
Pressure (altimeter):29.52 inches Hg ( 999.7 mb) [Sea level pressure: 999.4 mb]
Winds:from the S (190 degrees) at 15 MPH (13 knots; 6.7 m/s)
Visibility:10 or more sm (16+ km)
Ceiling:2600 feet AGL
Clouds: overcast cloud deck at 2600 feet AGL
QC Flag:automated observation with no human augmentation